createdAt,value
2023-05-11T00:02:27.746Z,8.91
2023-05-11T00:04:56.232Z,8.83
2023-05-11T00:07:24.560Z,8.80
2023-05-11T00:09:52.718Z,8.72
2023-05-11T00:12:20.798Z,8.65
2023-05-11T00:14:49.003Z,8.55
2023-05-11T00:17:19.191Z,8.41
2023-05-11T00:19:47.647Z,8.34
2023-05-11T00:22:15.832Z,8.29
2023-05-11T00:24:46.447Z,8.27
2023-05-11T00:27:14.616Z,8.21
2023-05-11T00:29:43.135Z,8.21
2023-05-11T00:32:12.376Z,8.22
2023-05-11T00:34:40.954Z,8.20
2023-05-11T00:37:09.558Z,8.21
2023-05-11T00:39:40.927Z,8.23
2023-05-11T00:42:08.995Z,8.26
2023-05-11T00:44:37.232Z,8.27
2023-05-11T00:47:05.839Z,8.23
2023-05-11T00:49:34.442Z,8.19
2023-05-11T00:52:03.405Z,8.20
2023-05-11T00:54:32.127Z,8.22
2023-05-11T00:57:00.924Z,8.17
2023-05-11T00:59:29.445Z,8.19
2023-05-11T01:01:58.253Z,8.08
2023-05-11T01:04:26.981Z,8.04
2023-05-11T01:07:14.401Z,7.96
2023-05-11T01:09:48.632Z,7.88
2023-05-11T01:12:49.154Z,7.85
2023-05-11T01:15:53.312Z,7.85
2023-05-11T01:18:28.195Z,7.85
2023-05-11T01:21:00.394Z,7.81
2023-05-11T01:23:53.354Z,7.78
2023-05-11T01:26:47.494Z,7.75
2023-05-11T01:29:41.983Z,7.79
2023-05-11T01:32:18.070Z,7.79
2023-05-11T01:34:46.963Z,7.82
2023-05-11T01:37:19.975Z,7.83
2023-05-11T01:39:58.509Z,7.89
2023-05-11T01:42:33.746Z,7.95
2023-05-11T01:45:02.558Z,8.04
2023-05-11T01:47:31.138Z,8.15
2023-05-11T01:49:59.923Z,8.24
2023-05-11T01:52:28.741Z,8.37
2023-05-11T01:54:58.276Z,8.44
2023-05-11T01:57:27.127Z,8.53
2023-05-11T01:59:55.487Z,8.61
2023-05-11T02:02:24.109Z,8.64
2023-05-11T02:04:52.378Z,8.70
2023-05-11T02:07:21.526Z,8.75
2023-05-11T02:09:50.625Z,8.82
2023-05-11T02:12:20.197Z,8.91
2023-05-11T02:14:50.131Z,9.00
2023-05-11T02:17:19.483Z,9.09
2023-05-11T02:19:47.805Z,9.17
2023-05-11T02:22:16.193Z,9.26
2023-05-11T02:24:44.646Z,9.34
2023-05-11T02:27:13.374Z,9.40
2023-05-11T02:29:41.549Z,9.45
2023-05-11T02:32:16.368Z,9.47
2023-05-11T02:34:50.800Z,9.55
2023-05-11T02:37:21.714Z,9.56
2023-05-11T02:39:57.201Z,9.62
2023-05-11T02:42:27.447Z,9.67
2023-05-11T02:45:03.649Z,9.71
2023-05-11T02:47:37.074Z,9.73
2023-05-11T02:50:05.921Z,9.69
2023-05-11T02:52:44.542Z,9.75
2023-05-11T02:55:14.812Z,9.82
2023-05-11T02:57:44.632Z,9.85
2023-05-11T03:00:13.704Z,9.91
2023-05-11T03:02:42.214Z,10.03
2023-05-11T03:05:10.368Z,10.12
2023-05-11T03:07:38.646Z,10.19
2023-05-11T03:10:08.582Z,10.32
2023-05-11T03:12:37.349Z,10.47
2023-05-11T03:15:08.087Z,10.66
2023-05-11T03:17:37.702Z,10.87
2023-05-11T03:20:07.899Z,11.07
2023-05-11T03:22:37.565Z,11.17
2023-05-11T03:25:06.449Z,11.41
2023-05-11T03:27:35.248Z,11.46
2023-05-11T03:30:05.887Z,11.57
2023-05-11T03:32:34.752Z,11.72
2023-05-11T03:35:03.340Z,11.80
2023-05-11T03:37:32.074Z,11.80
2023-05-11T03:40:01.676Z,11.96
2023-05-11T03:42:31.053Z,12.16
2023-05-11T03:45:00.114Z,12.40
2023-05-11T03:47:29.524Z,12.69
2023-05-11T03:50:00.160Z,12.88
2023-05-11T03:52:28.950Z,13.33
2023-05-11T03:54:57.464Z,13.82
2023-05-11T03:57:26.729Z,14.31
2023-05-11T03:59:55.032Z,14.79
2023-05-11T04:02:25.084Z,15.66
2023-05-11T04:04:54.031Z,17.65
2023-05-11T04:07:47.669Z,18.20
2023-05-11T04:10:15.908Z,18.59
2023-05-11T04:12:45.031Z,19.89
2023-05-11T04:15:15.607Z,20.83
2023-05-11T04:17:44.066Z,20.57
2023-05-11T04:20:12.611Z,22.71
2023-05-11T04:22:41.406Z,24.34
2023-05-11T04:25:09.712Z,25.25
2023-05-11T04:27:38.262Z,27.03
2023-05-11T04:30:07.273Z,28.75
2023-05-11T04:32:35.945Z,28.54
2023-05-11T04:35:04.301Z,30.00
2023-05-11T04:37:32.854Z,30.47
2023-05-11T04:40:01.093Z,32.30
2023-05-11T04:42:30.871Z,32.34
2023-05-11T04:44:58.980Z,32.56
2023-05-11T04:47:27.169Z,32.37
2023-05-11T04:49:55.508Z,33.20
2023-05-11T04:52:24.116Z,32.77
2023-05-11T04:54:52.654Z,33.16
2023-05-11T04:57:24.064Z,34.06
2023-05-11T04:59:53.501Z,32.78
2023-05-11T05:02:21.789Z,32.66
2023-05-11T05:04:49.686Z,33.16
2023-05-11T05:07:17.744Z,33.19
2023-05-11T05:09:45.861Z,33.01
2023-05-11T05:12:14.081Z,32.70
2023-05-11T05:14:42.579Z,32.17
2023-05-11T05:17:11.084Z,32.27
2023-05-11T05:19:39.458Z,32.09
2023-05-11T05:22:07.945Z,32.24
2023-05-11T05:24:36.289Z,33.20
2023-05-11T05:27:04.632Z,34.33
2023-05-11T05:29:32.866Z,33.08
2023-05-11T05:32:01.050Z,31.82
2023-05-11T05:34:29.448Z,31.50
2023-05-11T05:37:00.931Z,32.17
2023-05-11T05:39:29.140Z,32.16
2023-05-11T05:41:57.647Z,31.60
2023-05-11T05:44:26.425Z,32.05
2023-05-11T05:46:55.025Z,32.24
2023-05-11T05:49:26.179Z,32.55
2023-05-11T05:51:55.446Z,32.21
2023-05-11T05:54:23.879Z,33.05
2023-05-11T05:56:52.404Z,32.93
2023-05-11T05:59:23.722Z,33.10
2023-05-11T06:01:52.131Z,33.38
2023-05-11T06:04:20.251Z,33.62
2023-05-11T06:06:49.123Z,33.20
2023-05-11T06:09:17.603Z,32.45
2023-05-11T06:11:46.208Z,32.32
2023-05-11T06:14:14.266Z,32.36
2023-05-11T06:16:42.967Z,32.17
2023-05-11T06:19:14.009Z,31.30
2023-05-11T06:21:43.962Z,32.82
2023-05-11T06:24:12.332Z,33.19
2023-05-11T06:26:41.373Z,33.08
2023-05-11T06:29:09.288Z,33.08
2023-05-11T06:31:37.565Z,33.40
2023-05-11T06:34:06.172Z,33.06
2023-05-11T06:36:35.600Z,31.87
2023-05-11T06:39:04.998Z,32.40
2023-05-11T06:41:33.134Z,32.77
2023-05-11T06:44:01.744Z,33.49
2023-05-11T06:46:30.607Z,33.20
2023-05-11T06:48:58.983Z,32.94
2023-05-11T06:51:27.440Z,31.88
2023-05-11T06:53:55.767Z,31.05
2023-05-11T06:56:24.092Z,29.54
2023-05-11T06:58:52.140Z,28.41
2023-05-11T07:01:20.486Z,26.37
2023-05-11T07:03:50.886Z,24.53
2023-05-11T07:06:20.218Z,22.61
2023-05-11T07:08:48.632Z,21.55
2023-05-11T07:11:16.862Z,21.04
2023-05-11T07:13:45.742Z,20.94
2023-05-11T07:16:14.900Z,20.23
2023-05-11T07:18:44.388Z,19.91
2023-05-11T07:21:12.342Z,19.91
2023-05-11T07:23:40.456Z,19.87
2023-05-11T07:26:11.259Z,20.02
2023-05-11T07:28:39.805Z,20.17
2023-05-11T07:31:07.967Z,20.14
2023-05-11T07:33:38.788Z,19.78
2023-05-11T07:36:07.707Z,19.07
2023-05-11T07:38:38.026Z,19.30
2023-05-11T07:41:07.116Z,19.27
2023-05-11T07:43:36.075Z,19.12
2023-05-11T07:46:04.661Z,19.10
2023-05-11T07:48:32.884Z,18.97
2023-05-11T07:51:03.980Z,19.41
2023-05-11T07:53:32.261Z,19.59
2023-05-11T07:56:01.147Z,19.74
2023-05-11T07:58:29.795Z,19.64
2023-05-11T08:00:58.117Z,19.62
2023-05-11T08:03:27.164Z,19.52
2023-05-11T08:05:55.339Z,19.19
2023-05-11T08:08:25.635Z,19.15
2023-05-11T08:10:53.935Z,18.98
2023-05-11T08:13:22.167Z,19.48
2023-05-11T08:15:50.517Z,19.78
2023-05-11T08:18:19.333Z,20.05
2023-05-11T08:20:47.430Z,19.91
2023-05-11T08:23:18.696Z,19.98
2023-05-11T08:25:51.830Z,19.94
2023-05-11T08:28:19.952Z,19.91
2023-05-11T08:30:47.984Z,19.79
2023-05-11T08:33:35.783Z,20.23
2023-05-11T08:36:06.802Z,20.48
2023-05-11T08:38:36.004Z,20.84
2023-05-11T08:41:05.276Z,20.89
2023-05-11T08:43:35.560Z,20.62
2023-05-11T08:46:08.685Z,20.58
2023-05-11T08:48:38.104Z,20.54
2023-05-11T08:51:06.790Z,20.63
2023-05-11T08:53:34.943Z,20.55
2023-05-11T08:56:07.098Z,20.72
2023-05-11T08:58:38.128Z,20.70
2023-05-11T09:01:07.756Z,20.54
2023-05-11T09:03:39.943Z,19.92
2023-05-11T09:06:09.475Z,19.50
2023-05-11T09:08:38.877Z,19.26
2023-05-11T09:11:07.903Z,19.36
2023-05-11T09:13:38.912Z,19.68
2023-05-11T09:16:23.482Z,20.37
2023-05-11T09:19:01.073Z,20.44
2023-05-11T09:21:32.928Z,20.04
2023-05-11T09:24:01.493Z,19.56
2023-05-11T09:26:34.326Z,19.02
2023-05-11T09:29:03.209Z,18.99
2023-05-11T09:31:43.134Z,18.93
2023-05-11T09:34:12.247Z,18.84
2023-05-11T09:36:41.708Z,18.89
2023-05-11T09:39:15.389Z,19.09
2023-05-11T09:42:15.618Z,19.30
2023-05-11T09:44:44.848Z,19.39
2023-05-11T09:47:17.831Z,19.39
2023-05-11T09:49:47.377Z,19.51
2023-05-11T09:52:19.479Z,19.54
2023-05-11T09:54:52.264Z,19.69
2023-05-11T09:57:28.916Z,19.99
2023-05-11T09:59:58.553Z,20.19
2023-05-11T10:02:31.556Z,20.06
2023-05-11T10:05:12.417Z,20.44
2023-05-11T10:07:40.850Z,20.60
2023-05-11T10:10:12.128Z,20.24
2023-05-11T10:12:40.804Z,20.37
2023-05-11T10:15:10.928Z,20.47
2023-05-11T10:17:39.234Z,21.07
2023-05-11T10:20:08.069Z,21.07
2023-05-11T10:22:36.751Z,20.76
2023-05-11T10:25:06.891Z,20.55
2023-05-11T10:27:35.055Z,20.21
2023-05-11T10:30:04.459Z,19.75
2023-05-11T10:32:37.777Z,19.83
2023-05-11T10:35:06.795Z,20.16
2023-05-11T10:37:35.954Z,20.43
2023-05-11T10:40:05.257Z,20.68
2023-05-11T10:42:53.197Z,20.84
2023-05-11T10:45:41.685Z,20.95
2023-05-11T10:48:36.636Z,21.03
2023-05-11T10:51:32.472Z,21.18
2023-05-11T10:54:19.431Z,21.39
2023-05-11T10:57:01.254Z,21.23
2023-05-11T11:00:11.011Z,20.95
2023-05-11T11:02:39.929Z,21.02
2023-05-11T11:05:11.201Z,21.32
2023-05-11T11:08:06.289Z,21.50
2023-05-11T11:10:49.766Z,21.33
2023-05-11T11:13:24.013Z,21.39
2023-05-11T11:15:58.344Z,21.14
2023-05-11T11:18:28.264Z,20.63
2023-05-11T11:20:58.538Z,20.48
2023-05-11T11:23:42.270Z,20.19
2023-05-11T11:26:19.243Z,19.99
2023-05-11T11:29:01.006Z,19.88
2023-05-11T11:31:30.833Z,20.01
2023-05-11T11:34:20.145Z,19.90
2023-05-11T11:37:04.309Z,19.99
2023-05-11T11:39:41.951Z,20.04
2023-05-11T11:42:10.934Z,19.85
2023-05-11T11:44:40.204Z,19.56
2023-05-11T11:47:22.314Z,19.63
2023-05-11T11:49:54.944Z,19.72
2023-05-11T11:52:29.087Z,20.08
2023-05-11T11:55:02.458Z,19.81
2023-05-11T11:57:38.373Z,19.62
2023-05-11T12:00:11.151Z,19.36
2023-05-11T12:02:44.932Z,19.18
2023-05-11T12:05:15.437Z,19.38
2023-05-11T12:07:49.111Z,19.30
2023-05-11T12:10:18.597Z,19.74
2023-05-11T12:12:48.626Z,20.47
2023-05-11T12:15:27.934Z,21.02
2023-05-11T12:17:57.131Z,21.17
2023-05-11T12:20:26.477Z,21.10
2023-05-11T12:22:54.546Z,21.01
2023-05-11T12:25:22.805Z,20.56
2023-05-11T12:28:03.351Z,19.92
2023-05-11T12:30:34.726Z,19.57
2023-05-11T12:33:05.039Z,19.30
2023-05-11T12:35:41.451Z,19.14
2023-05-11T12:38:11.885Z,19.01
2023-05-11T12:40:40.193Z,18.94
2023-05-11T12:43:10.040Z,18.91
2023-05-11T12:45:40.672Z,18.77
2023-05-11T12:48:11.217Z,18.57
2023-05-11T12:50:46.805Z,18.62
2023-05-11T12:53:16.700Z,18.83
2023-05-11T12:55:44.951Z,18.85
2023-05-11T12:58:21.893Z,18.85
2023-05-11T13:00:56.698Z,18.93
2023-05-11T13:03:30.833Z,18.91
2023-05-11T13:06:19.670Z,18.70
2023-05-11T13:08:49.112Z,18.68
2023-05-11T13:11:25.083Z,18.79
2023-05-11T13:13:54.415Z,18.91
2023-05-11T13:16:26.849Z,19.14
2023-05-11T13:19:03.755Z,19.28
2023-05-11T13:21:33.812Z,19.33
2023-05-11T13:24:04.368Z,19.24
2023-05-11T13:26:33.085Z,19.18
2023-05-11T13:31:32.375Z,19.53
2023-05-11T13:34:01.112Z,19.53
2023-05-11T13:36:30.035Z,19.45
2023-05-11T13:38:58.026Z,19.71
2023-05-11T13:41:26.411Z,20.07
2023-05-11T13:43:55.762Z,20.12
2023-05-11T13:46:23.852Z,20.52
2023-05-11T13:48:52.042Z,20.75
2023-05-11T13:51:20.009Z,20.94
2023-05-11T13:53:48.624Z,20.37
2023-05-11T13:56:19.872Z,20.52
2023-05-11T13:58:49.122Z,20.37
2023-05-11T14:01:17.620Z,20.08
2023-05-11T14:03:45.741Z,20.08
2023-05-11T14:06:14.447Z,20.05
2023-05-11T14:08:42.505Z,19.76
2023-05-11T14:11:12.536Z,19.64
2023-05-11T14:13:41.643Z,19.52
2023-05-11T14:16:10.743Z,19.44
2023-05-11T14:18:39.259Z,19.30
2023-05-11T14:21:07.578Z,19.10
2023-05-11T14:23:39.032Z,18.79
2023-05-11T14:26:09.276Z,18.66
2023-05-11T14:28:37.678Z,18.63
2023-05-11T14:31:06.346Z,18.55
2023-05-11T14:33:34.360Z,18.54
2023-05-11T14:36:03.449Z,18.52
2023-05-11T14:38:32.693Z,18.54
2023-05-11T14:41:02.641Z,18.65
2023-05-11T14:43:31.841Z,18.66
2023-05-11T14:45:59.909Z,18.62
2023-05-11T14:48:27.941Z,18.67
2023-05-11T14:50:55.931Z,18.72
2023-05-11T14:53:24.736Z,18.67
2023-05-11T14:55:53.351Z,18.75
2023-05-11T14:58:21.574Z,18.73
2023-05-11T15:00:50.002Z,18.72
2023-05-11T15:03:18.764Z,18.81
2023-05-11T15:05:48.911Z,18.90
2023-05-11T15:08:29.182Z,18.80
2023-05-11T15:10:58.957Z,19.05
2023-05-11T15:13:27.523Z,19.29
2023-05-11T15:15:56.668Z,19.37
2023-05-11T15:18:25.392Z,19.24
2023-05-11T15:20:53.524Z,19.02
2023-05-11T15:23:22.040Z,18.88
2023-05-11T15:25:50.321Z,18.89
2023-05-11T15:28:18.696Z,18.73
2023-05-11T15:30:47.733Z,18.56
2023-05-11T15:33:16.823Z,18.69
2023-05-11T15:35:45.067Z,18.69
2023-05-11T15:38:13.360Z,18.65
2023-05-11T15:40:57.494Z,18.70
2023-05-11T15:43:25.778Z,18.49
2023-05-11T15:45:54.703Z,18.49
2023-05-11T15:48:22.952Z,18.43
2023-05-11T15:50:51.343Z,18.43
2023-05-11T15:53:19.733Z,18.19
2023-05-11T15:55:51.597Z,18.13
2023-05-11T15:58:19.720Z,18.19
2023-05-11T16:00:49.209Z,18.19
2023-05-11T16:03:20.148Z,18.20
2023-05-11T16:05:48.260Z,18.13
2023-05-11T16:08:16.293Z,18.09
2023-05-11T16:10:44.488Z,17.97
2023-05-11T16:13:12.927Z,17.84
2023-05-11T16:15:41.311Z,17.66
2023-05-11T16:18:10.758Z,17.56
2023-05-11T16:20:39.247Z,17.49
2023-05-11T16:23:07.428Z,17.42
2023-05-11T16:25:36.450Z,17.33
2023-05-11T16:28:05.808Z,17.29
2023-05-11T16:30:34.085Z,17.25
2023-05-11T16:33:02.330Z,17.24
2023-05-11T16:35:32.538Z,17.18
2023-05-11T16:38:00.866Z,17.11
2023-05-11T16:40:29.303Z,17.03
2023-05-11T16:42:57.606Z,16.97
2023-05-11T16:45:25.696Z,16.89
2023-05-11T16:47:57.582Z,16.82
2023-05-11T16:50:25.568Z,16.75
2023-05-11T16:52:53.614Z,16.64
2023-05-11T16:55:21.728Z,16.59
2023-05-11T16:57:52.102Z,16.53
2023-05-11T17:00:20.868Z,16.44
2023-05-11T17:02:49.844Z,16.39
2023-05-11T17:05:21.397Z,16.35
2023-05-11T17:07:56.680Z,16.31
2023-05-11T17:10:27.268Z,16.28
2023-05-11T17:12:56.808Z,16.26
2023-05-11T17:15:27.279Z,16.25
2023-05-11T17:17:55.745Z,16.20
2023-05-11T17:20:24.130Z,16.13
2023-05-11T17:22:53.066Z,16.10
2023-05-11T17:25:21.356Z,16.09
2023-05-11T17:27:49.680Z,16.04
2023-05-11T17:30:18.529Z,15.96
2023-05-11T17:32:47.726Z,15.90
2023-05-11T17:35:16.847Z,15.84
2023-05-11T17:37:45.074Z,15.81
2023-05-11T17:40:13.209Z,15.79
2023-05-11T17:42:41.658Z,15.77
2023-05-11T17:45:10.333Z,15.71
2023-05-11T17:47:39.186Z,15.70
2023-05-11T17:50:07.982Z,15.66
2023-05-11T17:52:36.391Z,15.59
2023-05-11T17:55:06.872Z,15.53
2023-05-11T17:57:35.472Z,15.50
2023-05-11T18:00:04.186Z,15.43
2023-05-11T18:02:33.302Z,15.39
2023-05-11T18:05:02.434Z,15.41
2023-05-11T18:07:31.011Z,15.42
2023-05-11T18:09:59.867Z,15.38
2023-05-11T18:12:27.960Z,15.40
2023-05-11T18:14:56.310Z,15.38
2023-05-11T18:17:24.543Z,15.35
2023-05-11T18:19:53.106Z,15.25
2023-05-11T18:22:21.194Z,15.14
2023-05-11T18:24:49.440Z,15.07
2023-05-11T18:27:17.459Z,14.97
2023-05-11T18:29:48.010Z,14.90
2023-05-11T18:32:17.748Z,14.83
2023-05-11T18:34:47.100Z,14.76
2023-05-11T18:37:16.531Z,14.69
2023-05-11T18:39:44.923Z,14.62
2023-05-11T18:42:13.449Z,14.54
2023-05-11T18:44:41.844Z,14.44
2023-05-11T18:47:12.955Z,14.31
2023-05-11T18:49:42.406Z,14.20
2023-05-11T18:52:13.795Z,14.09
2023-05-11T18:54:42.619Z,13.98
2023-05-11T18:57:11.703Z,13.88
2023-05-11T18:59:39.984Z,13.79
2023-05-11T19:02:08.502Z,13.73
2023-05-11T19:04:38.009Z,13.76
2023-05-11T19:07:07.392Z,13.68
2023-05-11T19:09:35.954Z,13.66
2023-05-11T19:12:04.488Z,13.64
2023-05-11T19:14:35.334Z,13.57
2023-05-11T19:17:05.621Z,13.51
2023-05-11T19:19:34.693Z,13.45
2023-05-11T19:22:03.232Z,13.35
2023-05-11T19:24:32.048Z,13.26
2023-05-11T19:27:07.420Z,13.15
2023-05-11T19:29:36.260Z,13.07
2023-05-11T19:32:04.432Z,12.99
2023-05-11T19:34:35.937Z,12.88
2023-05-11T19:37:04.480Z,12.81
2023-05-11T19:39:38.123Z,12.72
2023-05-11T19:42:06.718Z,12.61
2023-05-11T19:44:38.122Z,12.54
2023-05-11T19:47:06.631Z,12.45
2023-05-11T19:49:34.858Z,12.41
2023-05-11T19:52:10.011Z,12.35
2023-05-11T19:54:38.276Z,12.28
2023-05-11T19:57:06.761Z,12.26
2023-05-11T19:59:37.811Z,12.26
2023-05-11T20:02:14.504Z,12.24
2023-05-11T20:04:48.593Z,12.23
2023-05-11T20:07:19.574Z,12.21
2023-05-11T20:09:47.773Z,12.15
2023-05-11T20:12:15.962Z,12.14
2023-05-11T20:14:44.382Z,12.08
2023-05-11T20:17:15.038Z,12.03
2023-05-11T20:19:45.723Z,11.97
2023-05-11T20:22:15.700Z,11.95
2023-05-11T20:24:54.356Z,11.90
2023-05-11T20:27:22.805Z,11.89
2023-05-11T20:29:53.930Z,11.88
2023-05-11T20:32:22.737Z,11.82
2023-05-11T20:34:53.831Z,11.83
2023-05-11T20:37:24.323Z,11.80
2023-05-11T20:39:52.554Z,11.80
2023-05-11T20:42:20.910Z,11.83
2023-05-11T20:44:54.172Z,11.76
2023-05-11T20:47:25.063Z,11.61
2023-05-11T20:49:55.419Z,11.56
2023-05-11T20:52:26.141Z,11.50
2023-05-11T20:54:54.607Z,11.38
2023-05-11T20:57:22.744Z,11.34
2023-05-11T21:02:22.071Z,11.24
2023-05-11T21:04:50.311Z,11.17
2023-05-11T21:07:18.479Z,11.20
2023-05-11T21:09:46.623Z,11.26
2023-05-11T21:12:15.286Z,11.18
2023-05-11T21:14:43.693Z,11.15
2023-05-11T21:17:12.469Z,11.14
2023-05-11T21:19:40.667Z,11.15
2023-05-11T21:22:09.669Z,11.15
2023-05-11T21:24:38.081Z,11.14
2023-05-11T21:27:06.475Z,11.14
2023-05-11T21:29:34.852Z,11.15
2023-05-11T21:32:02.716Z,11.11
2023-05-11T21:34:30.668Z,11.10
2023-05-11T21:37:00.034Z,11.06
2023-05-11T21:39:28.225Z,11.04
2023-05-11T21:41:57.118Z,11.06
2023-05-11T21:44:26.494Z,11.04
2023-05-11T21:46:57.446Z,11.04
2023-05-11T21:49:25.582Z,11.07
2023-05-11T21:51:55.686Z,11.09
2023-05-11T21:54:23.876Z,11.08
2023-05-11T21:56:52.681Z,11.09
2023-05-11T21:59:21.613Z,11.14
2023-05-11T22:01:49.974Z,11.16
2023-05-11T22:04:18.155Z,11.17
2023-05-11T22:06:46.400Z,11.19
2023-05-11T22:09:14.662Z,11.24
2023-05-11T22:11:48.176Z,11.23
2023-05-11T22:14:16.362Z,11.17
2023-05-11T22:16:44.702Z,11.16
2023-05-11T22:19:13.940Z,11.13
2023-05-11T22:21:42.539Z,11.15
2023-05-11T22:24:14.065Z,11.19
2023-05-11T22:26:42.088Z,11.16
2023-05-11T22:29:10.590Z,11.17
2023-05-11T22:31:38.718Z,11.10
2023-05-11T22:34:07.160Z,11.06
2023-05-11T22:36:36.003Z,11.12
2023-05-11T22:39:05.961Z,11.23
2023-05-11T22:41:34.908Z,11.26
2023-05-11T22:44:04.007Z,11.31
2023-05-11T22:46:32.575Z,11.18
2023-05-11T22:49:03.932Z,11.17
2023-05-11T22:51:32.786Z,11.12
2023-05-11T22:54:03.808Z,11.19
2023-05-11T22:56:32.177Z,11.17
2023-05-11T22:59:00.482Z,11.11
2023-05-11T23:01:31.977Z,11.01
2023-05-11T23:04:00.407Z,10.95
2023-05-11T23:06:29.655Z,10.96
2023-05-11T23:08:57.991Z,11.04
2023-05-11T23:11:26.871Z,11.02
2023-05-11T23:13:55.384Z,10.97
2023-05-11T23:16:23.506Z,10.96
2023-05-11T23:18:52.154Z,10.97
2023-05-11T23:21:20.448Z,10.88
2023-05-11T23:23:54.135Z,10.95
2023-05-11T23:26:23.835Z,10.92
2023-05-11T23:28:52.043Z,10.83
2023-05-11T23:31:20.105Z,10.76
2023-05-11T23:33:49.129Z,10.69
2023-05-11T23:36:17.842Z,10.65
2023-05-11T23:38:45.904Z,10.50
2023-05-11T23:41:13.844Z,10.35
2023-05-11T23:43:41.898Z,10.26
2023-05-11T23:46:10.118Z,10.18
2023-05-11T23:48:38.113Z,10.15
2023-05-11T23:51:06.466Z,10.28
2023-05-11T23:53:37.431Z,10.23
2023-05-11T23:56:05.794Z,10.17
2023-05-11T23:58:33.985Z,10.10
